Terminal Aerodrome Forecast
Issued by NWS

Home | Current Version | Previous Version | Text Only | Print | Product List | Glossary On
Versions: 1 2 3 4 5 6 7 8 9 10 11 12 13 14 15 16 17 18 19 20 21 22 23 24 25 26 27 28 29 30 31 32 33
000
FTUS44 KOUN 220928 AAA
TAFWWR
TAF AMD
KWWR 220928Z 2209/2306 23006KT 3SM BR OVC003
      TEMPO 2209/2212 1/2SM -DZ FG VV002
     FM221600 19014KT 4SM BR OVC012
     FM230100 19013KT 3SM BR OVC004=

USA.gov is the U.S. government's official web portal to all federal, state and local government web resources and services.